Time;durP1;ratioP1;P1;durP2;ratioP2;P2;SDS_P1;SDS_P2;PMS_P1;PMS_P2;Temp;Humidity;BMP_temperature;BMP_pressure;BME280_temperature;BME280_humidity;BME280_pressure;Samples;Min_cycle;Max_cycle;Signal;HPM_P1;HPM_P2
2023/02/16 00:00:59;;;;;;;14.87;13.03;;;6.80;90.40;;;;;;5074732;28;20433;-58
2023/02/16 00:03:28;;;;;;;19.37;13.60;;;6.80;90.50;;;;;;5074699;28;20467;-58
2023/02/16 00:05:55;;;;;;;16.20;11.70;;;6.70;90.20;;;;;;5074362;28;20878;-58
2023/02/16 00:08:22;;;;;;;18.27;13.37;;;6.60;90.00;;;;;;5074572;28;20452;-58
2023/02/16 00:13:46;;;;;;;21.30;12.97;;;6.50;90.20;;;;;;5074119;28;20757;-58
2023/02/16 00:16:17;;;;;;;15.73;12.40;;;6.50;90.20;;;;;;5074299;28;20472;-58
2023/02/16 00:18:46;;;;;;;18.30;13.33;;;6.40;90.20;;;;;;5074406;28;20436;-58
2023/02/16 00:21:13;;;;;;;20.07;12.90;;;6.40;90.20;;;;;;5074279;28;20441;-58
2023/02/16 00:23:40;;;;;;;16.10;12.87;;;6.30;90.20;;;;;;5074278;28;20464;-58
2023/02/16 00:26:14;;;;;;;15.70;12.47;;;6.30;90.40;;;;;;5074130;28;20472;-58
2023/02/16 00:28:42;;;;;;;14.90;12.40;;;6.30;90.50;;;;;;5073856;28;20486;-58
2023/02/16 00:31:16;;;;;;;16.77;13.23;;;6.20;90.50;;;;;;5074098;28;20535;-58
2023/02/16 00:33:42;;;;;;;18.03;12.80;;;6.20;90.50;;;;;;5074063;28;20468;-59
2023/02/16 00:36:11;;;;;;;17.53;13.90;;;6.20;90.60;;;;;;5074705;28;20476;-59
2023/02/16 00:38:37;;;;;;;17.23;13.40;;;6.20;90.70;;;;;;5074080;28;20801;-58
2023/02/16 00:41:04;;;;;;;20.40;14.37;;;6.20;90.60;;;;;;5074009;28;20453;-58
2023/02/16 00:43:31;;;;;;;18.07;13.73;;;6.10;90.70;;;;;;5073803;28;20893;-58
2023/02/16 00:45:58;;;;;;;17.57;13.13;;;6.10;90.80;;;;;;5073813;28;20480;-58
2023/02/16 00:48:25;;;;;;;18.17;14.30;;;6.10;90.90;;;;;;5073482;28;20456;-58
2023/02/16 00:50:52;;;;;;;16.40;12.47;;;6.10;91.00;;;;;;5073844;28;20445;-58
2023/02/16 00:53:20;;;;;;;19.50;15.43;;;6.10;91.00;;;;;;5074670;28;20437;-58
2023/02/16 00:55:47;;;;;;;20.17;15.30;;;6.00;91.10;;;;;;5073719;28;20476;-58
2023/02/16 00:58:18;;;;;;;16.70;13.53;;;6.00;91.20;;;;;;5073495;28;20456;-58
2023/02/16 01:00:48;;;;;;;16.63;13.60;;;6.00;91.10;;;;;;5073865;28;20429;-58
2023/02/16 01:03:17;;;;;;;19.87;13.93;;;5.90;91.00;;;;;;5074004;28;20872;-58
2023/02/16 01:05:44;;;;;;;18.80;13.67;;;5.90;91.10;;;;;;5074225;28;20479;-58
2023/02/16 01:11:09;;;;;;;24.77;15.60;;;5.90;91.40;;;;;;5073398;28;20492;-58
2023/02/16 01:13:41;;;;;;;23.17;15.30;;;5.90;91.40;;;;;;5073702;28;20452;-58
2023/02/16 01:16:16;;;;;;;23.10;15.80;;;5.90;91.70;;;;;;5072909;28;20886;-58
2023/02/16 01:18:44;;;;;;;19.97;14.97;;;5.90;91.80;;;;;;5073478;28;20451;-58
2023/02/16 01:21:11;;;;;;;23.20;16.27;;;5.90;91.90;;;;;;5073502;28;20868;-58
2023/02/16 01:23:38;;;;;;;27.87;17.20;;;5.90;91.90;;;;;;5073362;28;20561;-58
2023/02/16 01:26:12;;;;;;;25.43;16.70;;;5.90;92.20;;;;;;5073219;28;20472;-58
2023/02/16 01:28:38;;;;;;;25.87;17.10;;;5.90;92.50;;;;;;5073395;28;20425;-58
2023/02/16 01:31:05;;;;;;;22.90;16.17;;;5.90;92.50;;;;;;5073396;28;20464;-58
2023/02/16 01:33:32;;;;;;;24.63;16.23;;;5.90;93.10;;;;;;5073016;28;20452;-58
2023/02/16 01:35:59;;;;;;;25.57;18.37;;;5.90;93.00;;;;;;5073289;28;20475;-58
2023/02/16 01:38:28;;;;;;;28.63;17.03;;;5.90;93.30;;;;;;5073378;28;20460;-58
2023/02/16 01:41:04;;;;;;;23.03;17.07;;;5.90;93.40;;;;;;5073234;28;20444;-58
2023/02/16 01:43:39;;;;;;;25.60;16.53;;;5.90;93.60;;;;;;5073315;28;20827;-58
2023/02/16 01:46:13;;;;;;;26.13;18.03;;;6.00;93.60;;;;;;5073321;28;20464;-58
2023/02/16 01:48:40;;;;;;;23.70;17.30;;;6.00;93.50;;;;;;5073041;28;20482;-58
2023/02/16 01:51:15;;;;;;;26.93;18.67;;;6.00;93.50;;;;;;5073230;28;20456;-58
2023/02/16 01:53:44;;;;;;;28.77;18.60;;;6.00;93.50;;;;;;5073264;28;20447;-58
2023/02/16 01:56:18;;;;;;;26.43;17.80;;;6.00;93.50;;;;;;5073098;28;20469;-58
2023/02/16 01:58:50;;;;;;;24.00;17.27;;;6.00;93.40;;;;;;5073179;28;20428;-58
2023/02/16 02:01:39;;;;;;;27.17;18.63;;;6.00;93.40;;;;;;5073220;28;20436;-58
2023/02/16 02:06:58;;;;;;;23.83;17.60;;;6.00;93.40;;;;;;5073350;28;20503;-59
2023/02/16 02:09:33;;;;;;;25.90;16.90;;;5.90;93.30;;;;;;5073152;28;20429;-58
2023/02/16 02:12:07;;;;;;;27.20;18.60;;;5.90;93.40;;;;;;5073018;28;20437;-59
2023/02/16 02:14:39;;;;;;;27.33;18.27;;;5.90;93.40;;;;;;5072617;28;20476;-59
2023/02/16 02:17:08;;;;;;;21.67;16.10;;;5.90;93.40;;;;;;5072877;28;20429;-59
2023/02/16 02:19:45;;;;;;;25.03;17.90;;;5.90;93.40;;;;;;5072666;28;20802;-58
2023/02/16 02:26:06;;;;;;;26.20;17.10;;;5.90;93.50;;;;;;5010773;28;20458;-58
2023/02/16 02:28:44;;;;;;;27.03;16.97;;;5.90;93.50;;;;;;5013079;28;20435;-58
2023/02/16 02:31:20;;;;;;;30.43;18.27;;;5.80;93.60;;;;;;5058816;28;20776;-58
2023/02/16 02:33:59;;;;;;;27.73;17.10;;;5.80;93.60;;;;;;5076086;28;20774;-59
2023/02/16 02:36:34;;;;;;;21.03;16.20;;;5.80;93.60;;;;;;5076310;28;20464;-58
2023/02/16 02:39:14;;;;;;;25.63;17.20;;;5.80;93.60;;;;;;5076064;28;20936;-58
2023/02/16 02:42:05;;;;;;;21.30;16.93;;;5.80;93.50;;;;;;5076310;28;20429;-58
2023/02/16 02:44:39;;;;;;;22.90;16.33;;;5.80;93.50;;;;;;5075987;28;20469;-59
2023/02/16 02:47:06;;;;;;;27.10;17.77;;;5.80;93.50;;;;;;5076135;28;20463;-58
2023/02/16 02:49:33;;;;;;;27.40;18.70;;;5.80;93.50;;;;;;5076204;28;20432;-58
2023/02/16 02:52:00;;;;;;;27.40;18.70;;;5.70;93.50;;;;;;5076104;28;20456;-58
2023/02/16 03:02:55;;;;;;;30.33;18.97;;;5.70;94.30;;;;;;5075777;28;20468;-58
2023/02/16 03:05:24;;;;;;;29.90;21.10;;;5.70;94.40;;;;;;5075812;28;20472;-58
2023/02/16 03:07:56;;;;;;;23.70;17.63;;;5.70;94.50;;;;;;5075780;28;20460;-58
2023/02/16 03:13:17;;;;;;;31.40;18.60;;;5.80;94.70;;;;;;5075793;28;20775;-58
2023/02/16 03:15:47;;;;;;;26.87;18.97;;;5.80;95.00;;;;;;5075286;28;21027;-58
2023/02/16 03:29:21;;;;;;;27.97;18.27;;;5.80;95.30;;;;;;5075568;28;20496;-58
2023/02/16 03:31:50;;;;;;;27.00;19.03;;;5.80;95.20;;;;;;5075091;28;20812;-58
2023/02/16 03:34:19;;;;;;;29.60;19.30;;;5.80;95.20;;;;;;5074904;28;20448;-59
2023/02/16 03:36:48;;;;;;;27.13;19.17;;;5.80;95.30;;;;;;5075317;28;20467;-58
2023/02/16 03:39:16;;;;;;;34.47;20.93;;;5.80;95.50;;;;;;5074572;28;20448;-58
2023/02/16 03:41:47;;;;;;;31.27;19.53;;;5.80;95.60;;;;;;5075102;28;20464;-58
2023/02/16 03:44:14;;;;;;;31.53;19.73;;;5.70;95.60;;;;;;5074940;28;20465;-58
2023/02/16 03:46:41;;;;;;;30.63;20.97;;;5.70;95.70;;;;;;5075108;28;20502;-58
2023/02/16 03:49:09;;;;;;;33.37;21.93;;;5.70;95.80;;;;;;5074602;28;20456;-58
2023/02/16 03:51:36;;;;;;;29.17;19.27;;;5.80;95.80;;;;;;5074986;28;20436;-58
2023/02/16 03:54:03;;;;;;;26.33;19.13;;;5.70;95.70;;;;;;5074942;28;20445;-58
2023/02/16 03:56:30;;;;;;;26.30;18.80;;;5.70;95.40;;;;;;5074830;28;20476;-58
2023/02/16 03:58:56;;;;;;;26.33;19.20;;;5.70;95.10;;;;;;5074569;28;20437;-58
2023/02/16 04:01:23;;;;;;;34.30;20.40;;;5.70;95.00;;;;;;5074784;28;20467;-58
2023/02/16 04:03:50;;;;;;;25.47;17.53;;;5.70;94.80;;;;;;5074824;28;20473;-59
2023/02/16 04:06:18;;;;;;;26.63;19.90;;;5.70;94.60;;;;;;5074713;28;20468;-58
2023/02/16 04:08:45;;;;;;;24.50;19.03;;;5.70;94.40;;;;;;5074602;28;20449;-58
2023/02/16 04:13:55;;;;;;;27.03;20.00;;;5.60;94.10;;;;;;5074635;28;20396;-58
2023/02/16 04:16:22;;;;;;;30.23;18.93;;;5.60;94.00;;;;;;5074447;28;20473;-59
2023/02/16 04:18:49;;;;;;;25.30;18.50;;;5.60;94.00;;;;;;5074495;28;20456;-58
2023/02/16 04:21:17;;;;;;;28.40;18.97;;;5.60;94.00;;;;;;5074458;28;20460;-58
2023/02/16 04:23:44;;;;;;;29.03;18.67;;;5.50;94.00;;;;;;5074410;28;20469;-58
2023/02/16 04:26:10;;;;;;;29.30;19.50;;;5.50;94.00;;;;;;5073977;28;20980;-58
2023/02/16 04:28:37;;;;;;;26.43;18.90;;;5.50;94.00;;;;;;5074256;28;20853;-58
2023/02/16 04:31:04;;;;;;;24.67;19.10;;;5.40;94.00;;;;;;5074353;28;20457;-58
2023/02/16 04:33:30;;;;;;;27.27;17.77;;;5.30;93.90;;;;;;5074172;28;20464;-58
2023/02/16 04:35:57;;;;;;;26.50;19.43;;;5.30;93.90;;;;;;5073869;28;20880;-58
2023/02/16 04:38:25;;;;;;;27.30;19.23;;;5.30;93.90;;;;;;5074261;28;20460;-58
2023/02/16 04:40:52;;;;;;;30.77;18.17;;;5.30;94.10;;;;;;5074318;28;20476;-58
2023/02/16 04:43:19;;;;;;;27.40;18.90;;;5.30;94.30;;;;;;5074160;28;20983;-58
2023/02/16 04:45:46;;;;;;;29.40;19.93;;;5.30;94.60;;;;;;5074795;28;20472;-58
2023/02/16 04:48:12;;;;;;;25.40;19.53;;;5.20;95.00;;;;;;5074408;28;20460;-58
2023/02/16 04:50:39;;;;;;;31.80;21.93;;;5.30;95.20;;;;;;5074087;28;20456;-59
2023/02/16 04:53:06;;;;;;;28.07;20.80;;;5.30;95.20;;;;;;5074500;28;20517;-58
2023/02/16 04:55:34;;;;;;;34.83;22.60;;;5.30;95.20;;;;;;5075508;28;20479;-58
2023/02/16 04:58:01;;;;;;;33.30;20.70;;;5.30;95.20;;;;;;5074651;28;20909;-58
2023/02/16 05:00:27;;;;;;;32.10;21.50;;;5.30;95.10;;;;;;5074613;28;20456;-58
2023/02/16 05:02:54;;;;;;;29.97;19.23;;;5.30;95.10;;;;;;5074126;28;20503;-58
2023/02/16 05:05:21;;;;;;;29.97;21.20;;;5.30;95.10;;;;;;5074226;28;20985;-58
2023/02/16 05:07:47;;;;;;;30.27;21.10;;;5.30;95.10;;;;;;5073999;28;20448;-58
2023/02/16 05:10:14;;;;;;;30.63;19.87;;;5.20;95.20;;;;;;5074252;28;20425;-59
2023/02/16 05:15:26;;;;;;;31.23;22.07;;;5.20;95.70;;;;;;5073518;28;20451;-58
2023/02/16 05:17:53;;;;;;;28.00;19.67;;;5.30;95.50;;;;;;5073593;28;20455;-58
2023/02/16 05:21:28;;;;;;;30.17;21.07;;;5.30;95.60;;;;;;5073550;28;20444;-58
2023/02/16 05:23:06;;;;;;;26.47;20.03;;;5.20;95.60;;;;;;5073483;28;20484;-58
2023/02/16 05:25:33;;;;;;;31.83;21.40;;;5.30;95.70;;;;;;5073284;28;20483;-58
2023/02/16 05:28:01;;;;;;;31.37;19.10;;;5.30;95.80;;;;;;5073315;28;20510;-58
2023/02/16 05:30:28;;;;;;;27.67;20.27;;;5.30;95.90;;;;;;5073036;28;20444;-58
2023/02/16 05:32:54;;;;;;;39.00;22.13;;;5.30;96.00;;;;;;5073290;28;20460;-58
2023/02/16 05:35:21;;;;;;;30.40;20.77;;;5.30;96.00;;;;;;5073313;28;20916;-58
2023/02/16 05:37:48;;;;;;;32.87;21.10;;;5.40;96.00;;;;;;5073345;28;20436;-58
2023/02/16 05:40:15;;;;;;;32.93;19.83;;;5.40;96.00;;;;;;5073208;28;20448;-58
2023/02/16 05:42:41;;;;;;;27.47;19.03;;;5.40;96.00;;;;;;5073155;28;20445;-58
2023/02/16 05:45:10;;;;;;;27.93;19.63;;;5.40;96.10;;;;;;5073160;28;20467;-58
2023/02/16 05:47:36;;;;;;;32.03;22.03;;;5.40;96.10;;;;;;5073101;28;20473;-58
2023/02/16 05:50:05;;;;;;;28.83;19.80;;;5.40;96.10;;;;;;5074221;28;20448;-58
2023/02/16 05:52:32;;;;;;;37.00;21.33;;;5.40;96.20;;;;;;5076078;28;20456;-57
2023/02/16 05:54:58;;;;;;;29.13;20.13;;;5.40;96.20;;;;;;5073626;28;20472;-58
2023/02/16 05:57:25;;;;;;;33.30;22.23;;;5.40;96.20;;;;;;5073065;28;20448;-58
2023/02/16 05:59:52;;;;;;;32.83;20.93;;;5.40;96.20;;;;;;5072744;28;20921;-58
2023/02/16 06:02:20;;;;;;;30.00;21.27;;;5.50;96.30;;;;;;5073350;28;20449;-58
2023/02/16 06:04:46;;;;;;;34.63;22.53;;;5.50;96.40;;;;;;5076887;28;20491;-58
2023/02/16 06:07:13;;;;;;;37.00;22.53;;;5.40;96.40;;;;;;5077119;28;20429;-58
2023/02/16 06:09:40;;;;;;;34.37;21.20;;;5.50;96.50;;;;;;5076884;28;20425;-57
2023/02/16 06:12:07;;;;;;;32.70;21.40;;;5.40;96.50;;;;;;5076808;28;20526;-56
2023/02/16 06:14:33;;;;;;;37.97;23.43;;;5.50;96.60;;;;;;5076751;28;20465;-57
2023/02/16 06:17:00;;;;;;;31.20;20.53;;;5.50;96.50;;;;;;5076765;28;20790;-57
2023/02/16 06:19:28;;;;;;;34.10;19.57;;;5.50;96.60;;;;;;5076678;28;20460;-56
2023/02/16 06:21:55;;;;;;;32.57;20.50;;;5.50;96.80;;;;;;5076284;28;20960;-56
2023/02/16 06:24:21;;;;;;;32.50;20.90;;;5.50;96.80;;;;;;5076174;28;20832;-57
2023/02/16 06:26:48;;;;;;;31.60;20.90;;;5.50;96.80;;;;;;5076515;28;20463;-57
2023/02/16 06:29:15;;;;;;;35.03;21.93;;;5.60;97.00;;;;;;5076564;28;20443;-57
2023/02/16 06:31:41;;;;;;;34.13;21.77;;;5.60;97.00;;;;;;5076561;28;20494;-57
2023/02/16 06:34:08;;;;;;;28.37;20.60;;;5.60;97.00;;;;;;5076027;28;20842;-58
2023/02/16 06:36:36;;;;;;;39.00;24.03;;;5.60;97.00;;;;;;5076422;28;20436;-57
2023/02/16 06:39:03;;;;;;;36.43;24.83;;;5.60;97.00;;;;;;5076377;28;20452;-57
2023/02/16 06:41:33;;;;;;;26.73;19.77;;;5.70;97.10;;;;;;5076339;28;20437;-57
2023/02/16 06:44:00;;;;;;;31.43;20.10;;;5.70;97.10;;;;;;5075878;28;20991;-57
2023/02/16 06:46:27;;;;;;;28.80;20.60;;;5.70;97.10;;;;;;5076186;28;20476;-57
2023/02/16 06:48:54;;;;;;;35.27;23.40;;;5.70;97.10;;;;;;5075813;28;20962;-57
2023/02/16 06:51:22;;;;;;;35.27;21.00;;;5.70;97.10;;;;;;5076245;28;20425;-57
2023/02/16 06:53:50;;;;;;;34.67;22.03;;;5.70;97.10;;;;;;5076072;28;20444;-57
2023/02/16 06:56:16;;;;;;;29.93;21.20;;;5.80;97.10;;;;;;5075761;28;20484;-57
2023/02/16 06:58:43;;;;;;;29.30;21.60;;;5.80;97.10;;;;;;5075753;28;20854;-57
2023/02/16 07:01:10;;;;;;;34.40;22.20;;;5.80;97.10;;;;;;5076032;28;20837;-57
2023/02/16 07:03:37;;;;;;;37.13;23.33;;;5.80;97.10;;;;;;5075632;28;20976;-57
2023/02/16 07:06:04;;;;;;;36.63;24.27;;;5.90;97.00;;;;;;5075946;28;20483;-57
2023/02/16 07:08:31;;;;;;;34.70;23.43;;;5.90;97.00;;;;;;5075941;28;20471;-57
2023/02/16 07:10:59;;;;;;;34.53;23.00;;;5.90;97.00;;;;;;5076522;28;20430;-57
2023/02/16 07:13:26;;;;;;;31.93;22.97;;;5.90;97.00;;;;;;5075702;28;20440;-58
2023/02/16 07:15:52;;;;;;;34.10;22.53;;;5.90;97.00;;;;;;5074724;28;20472;-57
2023/02/16 07:18:19;;;;;;;37.10;23.77;;;5.90;97.00;;;;;;5075700;28;20441;-57
2023/02/16 07:20:47;;;;;;;36.00;23.50;;;6.00;97.00;;;;;;5075624;28;20432;-57
2023/02/16 07:23:13;;;;;;;40.63;23.50;;;6.00;97.00;;;;;;5075533;28;20452;-57
2023/02/16 07:25:40;;;;;;;41.70;25.00;;;6.00;97.00;;;;;;5075496;28;20513;-57
2023/02/16 07:28:08;;;;;;;35.10;23.77;;;6.00;97.00;;;;;;5075401;28;20461;-57
2023/02/16 07:30:35;;;;;;;37.53;23.27;;;6.00;97.30;;;;;;5075197;28;20475;-57
2023/02/16 07:33:02;;;;;;;33.20;22.43;;;6.00;97.00;;;;;;5075406;28;20436;-57
2023/02/16 07:35:28;;;;;;;34.53;22.70;;;6.10;97.00;;;;;;5074920;28;20547;-57
2023/02/16 07:37:55;;;;;;;33.40;22.87;;;6.10;97.00;;;;;;5075350;28;20530;-57
2023/02/16 07:40:22;;;;;;;34.33;23.70;;;6.10;97.00;;;;;;5075193;28;20460;-57
2023/02/16 07:42:48;;;;;;;37.03;23.60;;;6.10;97.10;;;;;;5075186;28;20504;-57
2023/02/16 07:45:17;;;;;;;34.80;23.17;;;6.20;97.10;;;;;;5074629;28;20488;-57
2023/02/16 07:47:44;;;;;;;38.07;23.00;;;6.20;97.10;;;;;;5075292;28;20456;-57
2023/02/16 07:50:11;;;;;;;35.67;22.97;;;6.20;97.10;;;;;;5075006;28;20453;-57
2023/02/16 07:52:38;;;;;;;33.90;23.63;;;6.30;97.10;;;;;;5074971;28;20428;-57
2023/02/16 07:55:05;;;;;;;32.63;22.50;;;6.30;97.10;;;;;;5074868;28;20464;-57
2023/02/16 07:57:32;;;;;;;40.23;24.47;;;6.40;97.10;;;;;;5074665;28;20796;-57
2023/02/16 07:59:59;;;;;;;36.20;23.73;;;6.50;97.10;;;;;;5074739;28;20452;-58
2023/02/16 08:02:27;;;;;;;39.23;25.23;;;6.50;97.10;;;;;;5074736;28;20441;-57
2023/02/16 08:04:54;;;;;;;37.87;24.43;;;6.60;97.10;;;;;;5074676;28;20488;-57
2023/02/16 08:07:21;;;;;;;35.57;22.93;;;6.60;97.00;;;;;;5075227;28;20436;-57
2023/02/16 08:09:48;;;;;;;46.27;26.87;;;6.70;96.90;;;;;;5074619;28;20437;-57
2023/02/16 08:12:16;;;;;;;41.40;26.67;;;6.70;96.80;;;;;;5074560;28;20444;-57
2023/02/16 08:14:43;;;;;;;35.30;25.90;;;6.80;96.80;;;;;;5074355;28;20471;-57
2023/02/16 08:17:10;;;;;;;34.13;23.70;;;6.90;96.70;;;;;;5074701;28;20654;-57
2023/02/16 08:19:39;;;;;;;39.60;24.57;;;6.90;96.60;;;;;;5074066;28;20457;-57
2023/02/16 08:22:07;;;;;;;38.00;27.20;;;7.00;96.50;;;;;;5074381;28;20429;-57
2023/02/16 08:24:34;;;;;;;35.13;22.93;;;7.10;96.50;;;;;;5074250;28;20489;-58
2023/02/16 08:27:02;;;;;;;35.53;25.07;;;7.10;96.30;;;;;;5074179;28;20435;-57
2023/02/16 08:29:30;;;;;;;35.80;23.80;;;7.20;96.30;;;;;;5074300;28;20452;-57
2023/02/16 08:31:57;;;;;;;39.13;25.77;;;7.20;96.20;;;;;;5074188;28;20457;-57
2023/02/16 08:34:25;;;;;;;45.33;26.37;;;7.30;96.20;;;;;;5074107;28;20495;-57
2023/02/16 08:36:55;;;;;;;35.63;23.97;;;7.30;96.20;;;;;;5074153;28;20451;-57
2023/02/16 08:39:24;;;;;;;34.60;24.90;;;7.40;96.20;;;;;;5074221;28;20448;-57
2023/02/16 08:41:52;;;;;;;35.33;24.27;;;7.50;96.10;;;;;;5074065;28;20432;-57
2023/02/16 08:44:20;;;;;;;37.27;24.87;;;7.60;96.10;;;;;;5073830;28;20515;-58
2023/02/16 08:46:49;;;;;;;39.83;25.27;;;7.70;96.00;;;;;;5073832;28;20456;-58
2023/02/16 08:49:18;;;;;;;31.93;23.77;;;7.80;96.00;;;;;;5073935;28;20433;-57
2023/02/16 08:51:47;;;;;;;32.40;21.17;;;8.00;95.90;;;;;;5073876;28;20457;-57
2023/02/16 08:54:17;;;;;;;34.30;23.00;;;8.10;95.80;;;;;;5073706;28;20452;-57
2023/02/16 08:56:46;;;;;;;36.57;23.27;;;8.30;95.50;;;;;;5073751;28;20429;-58
2023/02/16 08:59:14;;;;;;;35.30;24.43;;;8.40;95.30;;;;;;5073773;28;20433;-57
2023/02/16 09:01:41;;;;;;;30.50;22.30;;;8.60;95.20;;;;;;5073708;28;20452;-57
2023/02/16 09:04:08;;;;;;;32.60;23.23;;;8.70;94.90;;;;;;5073492;28;20530;-59
2023/02/16 09:06:37;;;;;;;39.97;26.00;;;8.90;94.60;;;;;;5073705;28;20445;-58
2023/02/16 09:09:04;;;;;;;31.80;23.53;;;9.10;94.50;;;;;;5073553;28;20433;-57
2023/02/16 09:11:33;;;;;;;30.60;23.60;;;9.20;94.40;;;;;;5073524;28;20445;-58
2023/02/16 09:14:00;;;;;;;37.20;25.40;;;9.40;94.20;;;;;;5073563;28;20519;-58
2023/02/16 09:16:32;;;;;;;40.67;27.37;;;9.50;94.00;;;;;;5073481;28;20480;-57
2023/02/16 09:19:01;;;;;;;37.80;25.57;;;9.60;93.80;;;;;;5073511;28;20438;-57
2023/02/16 09:21:31;;;;;;;36.23;25.47;;;9.80;93.70;;;;;;5073503;28;20469;-58
2023/02/16 09:23:59;;;;;;;31.33;24.00;;;9.90;93.40;;;;;;5074267;28;20480;-58
2023/02/16 09:26:30;;;;;;;36.33;24.70;;;10.00;92.50;;;;;;5073327;28;20526;-58
2023/02/16 09:28:58;;;;;;;34.97;24.07;;;10.00;92.10;;;;;;5073377;28;20429;-58
2023/02/16 09:31:27;;;;;;;36.20;24.23;;;10.10;91.90;;;;;;5073348;28;20449;-58
2023/02/16 09:33:56;;;;;;;35.23;25.00;;;10.10;91.80;;;;;;5073398;28;20433;-58
2023/02/16 09:36:23;;;;;;;35.67;24.83;;;10.20;91.90;;;;;;5073218;28;20472;-58
2023/02/16 09:38:50;;;;;;;35.00;24.70;;;10.20;91.90;;;;;;5072818;28;20801;-58
2023/02/16 09:41:26;;;;;;;33.97;25.20;;;10.30;91.80;;;;;;5073282;28;20429;-58
2023/02/16 09:43:57;;;;;;;31.13;22.00;;;10.30;91.70;;;;;;5073235;28;20479;-58
2023/02/16 09:46:28;;;;;;;33.47;23.93;;;10.40;91.60;;;;;;5073207;28;20465;-58
2023/02/16 09:48:55;;;;;;;36.33;25.50;;;10.40;91.60;;;;;;5072877;28;20456;-58
2023/02/16 09:51:26;;;;;;;36.10;25.77;;;10.50;91.60;;;;;;5072991;28;20475;-58
2023/02/16 09:53:58;;;;;;;31.70;23.33;;;10.60;91.50;;;;;;5073722;28;20445;-58
2023/02/16 09:56:28;;;;;;;38.90;24.93;;;10.70;91.40;;;;;;5073173;28;20468;-58
2023/02/16 09:59:03;;;;;;;38.30;25.27;;;10.80;91.20;;;;;;5073195;28;20456;-58
2023/02/16 10:01:38;;;;;;;35.70;24.83;;;10.90;91.10;;;;;;5073396;28;20432;-58
2023/02/16 10:04:26;;;;;;;35.30;22.27;;;10.90;90.90;;;;;;5073114;28;20480;-58
2023/02/16 10:07:02;;;;;;;35.10;23.23;;;10.90;90.70;;;;;;5072980;28;20440;-58
2023/02/16 10:09:30;;;;;;;34.43;23.97;;;10.90;90.70;;;;;;5073154;28;20433;-58
2023/02/16 10:12:01;;;;;;;31.47;23.13;;;10.90;90.70;;;;;;5073260;28;20441;-58
2023/02/16 10:14:33;;;;;;;37.47;24.40;;;10.90;90.60;;;;;;5072801;28;20835;-58
2023/02/16 10:17:11;;;;;;;34.80;23.83;;;10.90;90.60;;;;;;5073141;28;20799;-58
2023/02/16 10:19:41;;;;;;;34.57;25.30;;;10.90;90.60;;;;;;5073134;28;20448;-58
2023/02/16 10:22:12;;;;;;;32.10;25.17;;;10.90;90.50;;;;;;5073102;28;20437;-58
2023/02/16 10:24:46;;;;;;;33.43;22.43;;;10.90;90.50;;;;;;5072712;28;20512;-58
2023/02/16 10:27:15;;;;;;;31.13;22.90;;;10.80;90.50;;;;;;5073095;28;20432;-58
2023/02/16 10:29:42;;;;;;;36.00;27.23;;;10.80;90.60;;;;;;5073864;28;20448;-58
2023/02/16 10:32:19;;;;;;;33.73;25.53;;;10.70;90.70;;;;;;5073099;28;20453;-59
2023/02/16 10:34:50;;;;;;;35.80;26.40;;;10.70;90.80;;;;;;5072841;28;20498;-58
2023/02/16 10:37:29;;;;;;;35.00;25.70;;;10.60;91.00;;;;;;5072882;28;20437;-58
2023/02/16 10:40:19;;;;;;;36.03;26.37;;;10.60;91.30;;;;;;5072916;28;20535;-58
2023/02/16 10:42:52;;;;;;;32.30;26.03;;;10.50;91.50;;;;;;5072956;28;20437;-58
2023/02/16 10:45:27;;;;;;;33.53;25.33;;;10.50;91.80;;;;;;5072659;28;20579;-58
2023/02/16 10:47:55;;;;;;;34.73;24.57;;;10.40;91.90;;;;;;5072408;28;20464;-58
2023/02/16 10:50:26;;;;;;;37.00;25.10;;;10.40;92.00;;;;;;5074600;28;20480;-58
2023/02/16 10:52:56;;;;;;;36.87;26.73;;;10.40;92.10;;;;;;5076346;28;20433;-58
2023/02/16 10:55:23;;;;;;;37.50;27.10;;;10.50;92.40;;;;;;5075918;28;20972;-58
2023/02/16 10:57:54;;;;;;;37.53;27.07;;;10.50;92.50;;;;;;5075849;28;21035;-58
2023/02/16 11:00:27;;;;;;;35.20;24.90;;;10.60;92.60;;;;;;5076552;28;20440;-58
2023/02/16 11:02:56;;;;;;;32.50;24.40;;;10.60;92.50;;;;;;5076907;28;20924;-58
2023/02/16 11:05:37;;;;;;;32.97;25.53;;;10.80;92.70;;;;;;5076225;28;20578;-59
2023/02/16 11:08:06;;;;;;;38.67;25.03;;;10.90;92.70;;;;;;5076294;28;20938;-57
2023/02/16 11:10:40;;;;;;;31.20;22.80;;;11.00;92.70;;;;;;5076483;28;20897;-58
2023/02/16 11:13:23;;;;;;;33.97;24.93;;;11.10;92.50;;;;;;5076041;28;20425;-58
2023/02/16 11:15:53;;;;;;;35.67;25.83;;;11.30;92.30;;;;;;5076632;28;20475;-58
2023/02/16 11:18:35;;;;;;;35.63;26.37;;;11.50;92.20;;;;;;5076876;28;20520;-58
2023/02/16 11:21:02;;;;;;;36.90;25.00;;;11.60;92.10;;;;;;5077181;28;20437;-58
2023/02/16 11:23:31;;;;;;;38.77;25.37;;;11.70;92.10;;;;;;5076769;28;20491;-58
2023/02/16 11:26:01;;;;;;;33.07;25.47;;;11.80;92.00;;;;;;5076528;28;20502;-58
2023/02/16 11:28:32;;;;;;;30.63;23.97;;;12.00;91.90;;;;;;5076372;28;20905;-58
2023/02/16 11:31:17;;;;;;;32.63;24.87;;;12.10;91.80;;;;;;5076358;28;20913;-58
2023/02/16 11:33:56;;;;;;;34.40;25.00;;;12.20;91.60;;;;;;5076095;28;20484;-58
2023/02/16 11:36:32;;;;;;;30.80;24.80;;;12.20;91.50;;;;;;5075887;28;20457;-58
2023/02/16 11:39:01;;;;;;;34.90;26.87;;;12.20;91.50;;;;;;5076673;28;20464;-57
2023/02/16 11:41:32;;;;;;;40.23;26.30;;;12.20;91.50;;;;;;5077042;28;20451;-57
2023/02/16 11:44:00;;;;;;;36.53;26.83;;;12.10;91.40;;;;;;5077314;28;20437;-57
2023/02/16 11:46:27;;;;;;;32.33;21.23;;;12.10;91.50;;;;;;5076608;28;20484;-57
2023/02/16 11:48:55;;;;;;;28.80;21.03;;;12.00;91.90;;;;;;5076676;28;20461;-57
2023/02/16 11:51:35;;;;;;;30.90;21.20;;;12.00;92.80;;;;;;5076405;28;20448;-57
2023/02/16 11:54:04;;;;;;;29.33;20.40;;;11.90;93.20;;;;;;5076466;28;20437;-58
2023/02/16 11:56:33;;;;;;;26.00;19.47;;;11.90;93.50;;;;;;5076462;28;20499;-58
2023/02/16 11:59:06;;;;;;;28.07;20.70;;;11.90;93.60;;;;;;5075241;28;20802;-58
2023/02/16 12:01:53;;;;;;;27.00;19.30;;;11.90;94.00;;;;;;5075282;28;20783;-58
2023/02/16 12:04:35;;;;;;;29.03;21.40;;;11.90;93.90;;;;;;5074732;28;20433;-58
2023/02/16 12:07:16;;;;;;;28.33;20.83;;;11.90;94.00;;;;;;5074809;28;20437;-58
2023/02/16 12:09:51;;;;;;;25.57;20.30;;;11.80;93.60;;;;;;5074407;28;20909;-58
2023/02/16 12:12:21;;;;;;;25.10;19.57;;;11.80;94.00;;;;;;5074645;28;20440;-58
2023/02/16 12:15:01;;;;;;;26.20;20.37;;;11.80;93.90;;;;;;5074494;28;20464;-58
2023/02/16 12:17:53;;;;;;;25.67;19.13;;;11.80;93.90;;;;;;5074492;28;20433;-58
2023/02/16 12:20:40;;;;;;;30.93;20.17;;;11.70;93.80;;;;;;5074380;28;20433;-59
2023/02/16 12:23:25;;;;;;;30.43;20.50;;;11.70;94.20;;;;;;5074113;28;20893;-58
2023/02/16 12:26:06;;;;;;;31.17;21.30;;;11.60;94.20;;;;;;5074196;28;20493;-58
2023/02/16 12:28:42;;;;;;;30.63;21.40;;;11.60;94.90;;;;;;5074273;28;20429;-58
2023/02/16 12:31:20;;;;;;;28.83;21.27;;;11.60;94.70;;;;;;5074223;28;20429;-58
2023/02/16 12:33:56;;;;;;;30.37;20.73;;;11.60;95.00;;;;;;5074149;28;20436;-58
2023/02/16 12:36:45;;;;;;;26.90;21.40;;;11.70;94.90;;;;;;5074175;28;20836;-58
2023/02/16 12:39:18;;;;;;;27.73;21.03;;;11.70;95.00;;;;;;5073832;28;20440;-57
2023/02/16 12:41:58;;;;;;;26.97;21.30;;;11.60;94.90;;;;;;5074072;28;20438;-57
2023/02/16 12:44:34;;;;;;;28.20;20.87;;;11.60;95.20;;;;;;5074003;28;20429;-57
2023/02/16 12:47:03;;;;;;;35.00;23.10;;;11.70;95.60;;;;;;5073639;28;20417;-57
2023/02/16 12:49:35;;;;;;;32.23;22.20;;;11.70;95.80;;;;;;5073960;28;20536;-57
2023/02/16 12:52:10;;;;;;;29.93;23.70;;;11.80;96.10;;;;;;5073919;28;20441;-57
2023/02/16 12:54:42;;;;;;;28.80;23.20;;;11.90;96.10;;;;;;5073416;28;20994;-57
2023/02/16 12:57:13;;;;;;;26.50;22.07;;;11.90;96.20;;;;;;5073777;28;20436;-57
2023/02/16 12:59:45;;;;;;;31.80;22.50;;;12.00;96.00;;;;;;5073541;28;20797;-57
2023/02/16 13:02:17;;;;;;;27.53;22.20;;;12.30;96.20;;;;;;5073762;28;20429;-58
2023/02/16 13:04:48;;;;;;;32.83;22.80;;;12.40;95.50;;;;;;5073512;28;20473;-58
2023/02/16 13:07:22;;;;;;;25.33;21.80;;;12.70;95.30;;;;;;5073721;28;20436;-57
2023/02/16 13:09:57;;;;;;;28.37;22.50;;;12.90;94.70;;;;;;5073655;28;20437;-57
2023/02/16 13:12:30;;;;;;;28.77;23.27;;;13.00;93.70;;;;;;5072750;28;20836;-57
2023/02/16 13:15:05;;;;;;;28.17;22.60;;;12.90;93.80;;;;;;5073487;28;20897;-57
2023/02/16 13:17:36;;;;;;;28.33;23.17;;;12.90;93.70;;;;;;5073662;28;20523;-57
2023/02/16 13:20:04;;;;;;;24.40;21.80;;;12.90;94.10;;;;;;5073538;28;20436;-57
2023/02/16 13:22:58;;;;;;;27.53;21.37;;;12.90;94.00;;;;;;5073453;28;20432;-57
2023/02/16 13:25:46;;;;;;;27.77;22.70;;;13.00;93.90;;;;;;5073273;28;20492;-58
2023/02/16 13:28:36;;;;;;;39.83;22.73;;;13.10;93.70;;;;;;5072920;28;20818;-57